createdAt,value
2019-01-09T00:03:04.200Z,97355.00
2019-01-09T00:07:06.632Z,97348.00
2019-01-09T00:11:08.987Z,97335.00
2019-01-09T00:15:11.409Z,97347.00
2019-01-09T00:19:13.773Z,97344.00
2019-01-09T00:23:16.156Z,97342.00
2019-01-09T00:27:18.498Z,97341.00
2019-01-09T00:31:20.969Z,97349.00
2019-01-09T00:35:23.402Z,97348.00
2019-01-09T00:39:25.814Z,97355.00
2019-01-09T00:43:28.194Z,97350.00
2019-01-09T00:47:30.671Z,97344.00
2019-01-09T00:51:33.137Z,97352.00
2019-01-09T00:55:35.481Z,97363.00
2019-01-09T00:59:37.874Z,97353.00
2019-01-09T01:03:50.983Z,97355.00
2019-01-09T01:08:12.065Z,97348.00
2019-01-09T01:16:32.386Z,97351.00
2019-01-09T01:20:41.118Z,97350.00
2019-01-09T01:25:55.154Z,97354.00
2019-01-09T01:32:32.323Z,97336.00
2019-01-09T01:37:53.097Z,97328.00
2019-01-09T01:43:48.442Z,97318.00
2019-01-09T01:49:03.162Z,97330.00
2019-01-09T01:53:24.162Z,97248.00
2019-01-09T01:59:38.303Z,97315.00
2019-01-09T02:03:54.923Z,97302.00
2019-01-09T02:08:09.983Z,97297.00
2019-01-09T02:12:23.357Z,97308.00
2019-01-09T02:16:35.883Z,97347.00
2019-01-09T02:20:55.046Z,97355.00
2019-01-09T02:25:07.612Z,97372.00
2019-01-09T02:29:19.926Z,97370.00
2019-01-09T02:33:22.251Z,97379.00
2019-01-09T02:37:24.583Z,97357.00
2019-01-09T02:41:26.897Z,97364.00
2019-01-09T02:45:29.222Z,97364.00
2019-01-09T02:49:31.569Z,97348.00
2019-01-09T02:53:33.906Z,97359.00
2019-01-09T02:57:36.201Z,97361.00
2019-01-09T03:01:38.492Z,97370.00
2019-01-09T03:05:40.868Z,97369.00
2019-01-09T03:09:43.242Z,97376.00
2019-01-09T03:13:45.603Z,97370.00
2019-01-09T03:17:47.933Z,97372.00
2019-01-09T03:21:50.275Z,97365.00
2019-01-09T03:25:52.677Z,97373.00
2019-01-09T03:29:55.015Z,97374.00
2019-01-09T03:33:57.386Z,97365.00
2019-01-09T03:37:59.714Z,97367.00
2019-01-09T03:42:02.052Z,97355.00
2019-01-09T03:46:04.410Z,97364.00
2019-01-09T03:50:07.107Z,97355.00
2019-01-09T03:54:09.451Z,97352.00
2019-01-09T03:58:11.772Z,97340.00
2019-01-09T04:02:14.067Z,97329.00
2019-01-09T04:06:16.411Z,97354.00
2019-01-09T04:10:18.766Z,97353.00
2019-01-09T04:14:21.091Z,97353.00
2019-01-09T04:18:23.396Z,97357.00
2019-01-09T04:22:25.745Z,97355.00
2019-01-09T04:26:28.045Z,97363.00
2019-01-09T04:30:30.387Z,97357.00
2019-01-09T04:34:32.746Z,97354.00
2019-01-09T04:38:35.078Z,97354.00
2019-01-09T04:42:37.407Z,97353.00
2019-01-09T04:46:39.725Z,97351.00
2019-01-09T04:50:42.034Z,97354.00
2019-01-09T04:54:44.382Z,97352.00
2019-01-09T04:58:46.672Z,97341.00
2019-01-09T05:02:48.981Z,97355.00
2019-01-09T05:07:00.314Z,97347.00
2019-01-09T05:10:53.728Z,97341.00
2019-01-09T05:14:56.167Z,97340.00
2019-01-09T05:18:58.487Z,97339.00
2019-01-09T05:23:00.814Z,97327.00
2019-01-09T05:27:03.171Z,97331.00
2019-01-09T05:31:07.786Z,97338.00
2019-01-09T05:35:07.905Z,97323.00
2019-01-09T05:39:10.211Z,97338.00
2019-01-09T05:43:12.531Z,97334.00
2019-01-09T05:47:14.839Z,97334.00
2019-01-09T05:51:17.177Z,97347.00
2019-01-09T05:55:19.499Z,97341.00
2019-01-09T05:59:21.826Z,97337.00
2019-01-09T06:03:24.160Z,97333.00
2019-01-09T06:07:26.519Z,97343.00
2019-01-09T06:11:28.926Z,97347.00
2019-01-09T06:15:31.261Z,97338.00
2019-01-09T06:19:33.637Z,97346.00
2019-01-09T06:23:36.039Z,97352.00
2019-01-09T06:27:38.349Z,97383.00
2019-01-09T06:31:40.683Z,97363.00
2019-01-09T06:35:43.054Z,97355.00
2019-01-09T06:39:45.410Z,97373.00
2019-01-09T06:43:47.724Z,97369.00
2019-01-09T06:47:50.053Z,97372.00
2019-01-09T06:51:52.370Z,97378.00
2019-01-09T06:55:54.722Z,97377.00
2019-01-09T06:59:57.091Z,97381.00
2019-01-09T07:03:59.439Z,97378.00
2019-01-09T07:08:01.792Z,97374.00
2019-01-09T07:12:04.079Z,97383.00
2019-01-09T07:16:06.403Z,97376.00
2019-01-09T07:20:08.753Z,97384.00
2019-01-09T07:24:11.114Z,97389.00
2019-01-09T07:28:13.400Z,97384.00
2019-01-09T07:32:15.694Z,97384.00
2019-01-09T07:36:18.004Z,97392.00
2019-01-09T07:40:20.346Z,97405.00
2019-01-09T07:44:22.698Z,97399.00
2019-01-09T07:48:24.997Z,97396.00
2019-01-09T07:52:27.329Z,97403.00
2019-01-09T07:56:29.650Z,97411.00
2019-01-09T08:00:31.958Z,97398.00
2019-01-09T08:04:34.270Z,97410.00
2019-01-09T08:08:36.568Z,97406.00
2019-01-09T08:12:38.870Z,97409.00
2019-01-09T08:16:41.224Z,97417.00
2019-01-09T08:20:43.609Z,97409.00
2019-01-09T08:24:45.929Z,97419.00
2019-01-09T08:28:48.264Z,97436.00
2019-01-09T08:32:50.597Z,97436.00
2019-01-09T08:36:52.899Z,97448.00
2019-01-09T08:40:55.245Z,97458.00
2019-01-09T08:44:57.593Z,97442.00
2019-01-09T08:48:59.970Z,97451.00
2019-01-09T08:53:02.287Z,97459.00
2019-01-09T08:57:04.643Z,97465.00
2019-01-09T09:01:06.961Z,97476.00
2019-01-09T09:05:09.300Z,97468.00
2019-01-09T09:09:11.460Z,97482.00
2019-01-09T09:13:27.624Z,97465.00
2019-01-09T09:17:29.977Z,97475.00
2019-01-09T09:21:32.286Z,97487.00
2019-01-09T09:25:34.574Z,97479.00
2019-01-09T09:29:36.865Z,97481.00
2019-01-09T09:33:39.151Z,97489.00
2019-01-09T09:37:41.417Z,97485.00
2019-01-09T09:41:43.738Z,97495.00
2019-01-09T09:45:46.033Z,97500.00
2019-01-09T09:49:48.349Z,97498.00
2019-01-09T09:53:50.627Z,97485.00
2019-01-09T09:57:53.079Z,97513.00
2019-01-09T10:01:55.434Z,97501.00
2019-01-09T10:05:57.822Z,97516.00
2019-01-09T10:10:06.933Z,97523.00
2019-01-09T10:14:09.263Z,97519.00
2019-01-09T10:18:11.629Z,97542.00
2019-01-09T10:22:13.995Z,97544.00
2019-01-09T10:26:16.347Z,97539.00
2019-01-09T10:30:18.862Z,97538.00
2019-01-09T10:34:21.281Z,97537.00
2019-01-09T10:38:23.712Z,97529.00
2019-01-09T10:42:26.153Z,97535.00
2019-01-09T10:46:28.527Z,97536.00
2019-01-09T10:50:30.855Z,97532.00
2019-01-09T10:54:33.237Z,97527.00
2019-01-09T10:58:35.607Z,97544.00
2019-01-09T11:02:37.943Z,97544.00
2019-01-09T11:06:40.361Z,97543.00
2019-01-09T11:10:42.757Z,97535.00
2019-01-09T11:14:45.073Z,97522.00
2019-01-09T11:18:47.424Z,97530.00
2019-01-09T11:22:49.778Z,97535.00
2019-01-09T11:26:52.276Z,97532.00
2019-01-09T11:30:54.866Z,97539.00
2019-01-09T11:34:57.187Z,97533.00
2019-01-09T11:38:59.622Z,97546.00
2019-01-09T11:43:03.745Z,97535.00
2019-01-09T11:47:04.382Z,97546.00
2019-01-09T11:51:06.703Z,97530.00
2019-01-09T11:55:10.407Z,97531.00
2019-01-09T11:59:12.741Z,97533.00
2019-01-09T12:03:15.082Z,97543.00
2019-01-09T12:07:17.433Z,97525.00
2019-01-09T12:11:19.758Z,97536.00
2019-01-09T12:15:22.222Z,97540.00
2019-01-09T12:19:24.641Z,97539.00
2019-01-09T12:23:26.970Z,97537.00
2019-01-09T12:27:29.363Z,97549.00
2019-01-09T12:31:38.317Z,97546.00
2019-01-09T12:35:40.657Z,97544.00
2019-01-09T12:39:42.976Z,97540.00
2019-01-09T12:43:45.348Z,97514.00
2019-01-09T12:47:47.718Z,97533.00
2019-01-09T12:51:50.041Z,97539.00
2019-01-09T12:55:52.463Z,97543.00
2019-01-09T12:59:54.797Z,97550.00
2019-01-09T13:03:57.165Z,97554.00
2019-01-09T13:07:59.430Z,97557.00
2019-01-09T13:12:01.893Z,97564.00
2019-01-09T13:16:04.315Z,97579.00
2019-01-09T13:20:08.322Z,97576.00
2019-01-09T13:24:10.655Z,97581.00
2019-01-09T13:28:12.956Z,97589.00
2019-01-09T13:32:15.302Z,97589.00
2019-01-09T13:36:17.665Z,97600.00
2019-01-09T13:40:20.251Z,97596.00
2019-01-09T13:44:22.634Z,97594.00
2019-01-09T13:48:25.449Z,97592.00
2019-01-09T13:52:28.472Z,97602.00
2019-01-09T13:56:30.832Z,97595.00
2019-01-09T14:00:33.171Z,97611.00
2019-01-09T14:04:35.581Z,97602.00
2019-01-09T14:08:37.926Z,97612.00
2019-01-09T14:12:40.211Z,97607.00
2019-01-09T14:16:42.590Z,97638.00
2019-01-09T14:20:44.901Z,97627.00
2019-01-09T14:24:47.248Z,97629.00
2019-01-09T14:28:49.630Z,97626.00
2019-01-09T14:32:51.916Z,97636.00
2019-01-09T14:36:54.245Z,97645.00
2019-01-09T14:40:56.577Z,97647.00
2019-01-09T14:44:58.914Z,97660.00
2019-01-09T14:49:01.327Z,97655.00
2019-01-09T14:53:03.709Z,97659.00
2019-01-09T14:57:06.107Z,97655.00
2019-01-09T15:01:08.464Z,97654.00
2019-01-09T15:05:10.997Z,97649.00
2019-01-09T15:09:13.375Z,97660.00
2019-01-09T15:13:15.740Z,97660.00
2019-01-09T15:17:18.140Z,97663.00
2019-01-09T15:21:20.505Z,97677.00
2019-01-09T15:25:22.926Z,97662.00
2019-01-09T15:29:25.331Z,97658.00
2019-01-09T15:33:27.685Z,97676.00
2019-01-09T15:37:30.044Z,97677.00
2019-01-09T15:41:32.415Z,97675.00
2019-01-09T15:45:34.890Z,97693.00
2019-01-09T15:49:37.207Z,97694.00
2019-01-09T15:53:39.530Z,97695.00
2019-01-09T15:57:42.284Z,97692.00
2019-01-09T16:01:44.615Z,97704.00
2019-01-09T16:05:46.955Z,97710.00
2019-01-09T16:09:49.291Z,97710.00
2019-01-09T16:13:51.651Z,97715.00
2019-01-09T16:17:54.038Z,97717.00
2019-01-09T16:21:56.476Z,97719.00
2019-01-09T16:25:58.809Z,97727.00
2019-01-09T16:30:01.190Z,97734.00
2019-01-09T16:34:04.119Z,97729.00
2019-01-09T16:38:06.438Z,97734.00
2019-01-09T16:42:08.795Z,97726.00
2019-01-09T16:46:11.219Z,97738.00
2019-01-09T16:50:15.588Z,97741.00
2019-01-09T16:54:17.887Z,97745.00
2019-01-09T16:58:20.257Z,97747.00
2019-01-09T17:02:22.618Z,97760.00
2019-01-09T17:06:24.952Z,97760.00
2019-01-09T17:10:32.268Z,97762.00
2019-01-09T17:14:29.740Z,97762.00
2019-01-09T17:18:32.144Z,97776.00
2019-01-09T17:22:41.188Z,97770.00
2019-01-09T17:26:43.558Z,97781.00
2019-01-09T17:30:46.059Z,97770.00
2019-01-09T17:34:48.458Z,97758.00
2019-01-09T17:38:50.882Z,97783.00
2019-01-09T17:42:53.366Z,97783.00
2019-01-09T17:46:55.739Z,97790.00
2019-01-09T17:50:58.065Z,97779.00
2019-01-09T17:55:00.499Z,97793.00
2019-01-09T17:59:02.927Z,97804.00
2019-01-09T18:03:05.313Z,97814.00
2019-01-09T18:07:07.758Z,97813.00
2019-01-09T18:11:12.344Z,97830.00
2019-01-09T18:15:16.373Z,97823.00
2019-01-09T18:19:18.738Z,97831.00
2019-01-09T18:23:21.158Z,97830.00
2019-01-09T18:27:24.455Z,97833.00
2019-01-09T18:31:36.484Z,97835.00
2019-01-09T18:35:51.754Z,97845.00
2019-01-09T18:41:16.253Z,97848.00
2019-01-09T18:45:39.759Z,97841.00
2019-01-09T18:51:58.692Z,97855.00
2019-01-09T18:56:01.073Z,97855.00
2019-01-09T19:00:05.042Z,97848.00
2019-01-09T19:04:07.563Z,97855.00
2019-01-09T19:08:10.654Z,97862.00
2019-01-09T19:12:13.057Z,97853.00
2019-01-09T19:16:15.412Z,97865.00
2019-01-09T19:20:18.622Z,97871.00
2019-01-09T19:24:20.995Z,97877.00
2019-01-09T19:28:23.341Z,97882.00
2019-01-09T19:32:25.834Z,97897.00
2019-01-09T19:36:29.253Z,97901.00
2019-01-09T19:40:31.649Z,97903.00
2019-01-09T19:44:34.049Z,97905.00
2019-01-09T19:48:36.452Z,97909.00
2019-01-09T19:52:38.906Z,97917.00
2019-01-09T19:56:43.759Z,97914.00
2019-01-09T20:00:46.963Z,97923.00
2019-01-09T20:04:49.339Z,97919.00
2019-01-09T20:08:51.734Z,97930.00
2019-01-09T20:12:54.221Z,97945.00
2019-01-09T20:16:56.685Z,97933.00
2019-01-09T20:20:59.189Z,97935.00
2019-01-09T20:25:01.583Z,97951.00
2019-01-09T20:29:04.043Z,97944.00
2019-01-09T20:33:06.434Z,97943.00
2019-01-09T20:37:08.897Z,97962.00
2019-01-09T20:41:11.944Z,97958.00
2019-01-09T20:45:15.234Z,97961.00
2019-01-09T20:49:17.638Z,97962.00
2019-01-09T20:53:20.126Z,97970.00
2019-01-09T20:57:22.550Z,97970.00
2019-01-09T21:01:25.361Z,97971.00
2019-01-09T21:05:33.699Z,97964.00
2019-01-09T21:09:36.472Z,97982.00
2019-01-09T21:13:38.940Z,97979.00
2019-01-09T21:17:41.368Z,97981.00
2019-01-09T21:21:43.744Z,97987.00
2019-01-09T21:25:46.033Z,97968.00
2019-01-09T21:29:48.374Z,97970.00
2019-01-09T21:33:51.387Z,97982.00
2019-01-09T21:37:53.712Z,97986.00
2019-01-09T21:41:56.027Z,97995.00
2019-01-09T21:45:58.561Z,98002.00
2019-01-09T21:50:01.027Z,98017.00
2019-01-09T21:54:03.482Z,98016.00
2019-01-09T21:58:06.788Z,98010.00
2019-01-09T22:02:09.037Z,98013.00
2019-01-09T22:06:11.386Z,98009.00
2019-01-09T22:10:17.268Z,98025.00
2019-01-09T22:14:19.628Z,98013.00
2019-01-09T22:18:21.998Z,98026.00
2019-01-09T22:22:24.323Z,98023.00
2019-01-09T22:26:26.922Z,98017.00
2019-01-09T22:30:29.488Z,98026.00
2019-01-09T22:34:31.868Z,98029.00
2019-01-09T22:38:34.725Z,98033.00
2019-01-09T22:42:37.133Z,98037.00
2019-01-09T22:46:39.727Z,98034.00
2019-01-09T22:50:42.177Z,98039.00
2019-01-09T22:54:44.606Z,98037.00
2019-01-09T22:58:46.942Z,98045.00
2019-01-09T23:02:49.277Z,98054.00
2019-01-09T23:06:51.663Z,98055.00
2019-01-09T23:10:55.989Z,98058.00
2019-01-09T23:14:56.345Z,98056.00
2019-01-09T23:18:58.791Z,98049.00
2019-01-09T23:23:01.351Z,98064.00
2019-01-09T23:27:03.833Z,98060.00
2019-01-09T23:31:06.242Z,98072.00
2019-01-09T23:35:08.680Z,98080.00
2019-01-09T23:39:11.087Z,98085.00
2019-01-09T23:43:13.515Z,98092.00
2019-01-09T23:47:15.944Z,98085.00
2019-01-09T23:51:18.320Z,98080.00
2019-01-09T23:55:20.699Z,98085.00
2019-01-09T23:59:23.019Z,98098.00
